sensor_id;sensor_type;location;lat;lon;timestamp;P1;durP1;ratioP1;P2;durP2;ratioP2
291;SDS011;23311;48.776;9.162;2023-01-15T00:00:15;1.63;;;0.53;;
291;SDS011;23311;48.776;9.162;2023-01-15T00:02:44;1.67;;;0.60;;
291;SDS011;23311;48.776;9.162;2023-01-15T00:05:12;1.53;;;0.60;;
291;SDS011;23311;48.776;9.162;2023-01-15T00:07:40;1.90;;;0.47;;
291;SDS011;23311;48.776;9.162;2023-01-15T00:10:11;0.93;;;0.50;;
291;SDS011;23311;48.776;9.162;2023-01-15T00:12:39;1.23;;;0.70;;
291;SDS011;23311;48.776;9.162;2023-01-15T00:15:07;1.00;;;0.40;;
291;SDS011;23311;48.776;9.162;2023-01-15T00:17:35;1.20;;;0.50;;
291;SDS011;23311;48.776;9.162;2023-01-15T00:20:04;0.90;;;0.37;;
291;SDS011;23311;48.776;9.162;2023-01-15T00:22:32;1.83;;;0.87;;
291;SDS011;23311;48.776;9.162;2023-01-15T00:25:00;1.63;;;0.50;;
291;SDS011;23311;48.776;9.162;2023-01-15T00:27:47;1.20;;;0.50;;
291;SDS011;23311;48.776;9.162;2023-01-15T00:30:15;1.20;;;0.60;;
291;SDS011;23311;48.776;9.162;2023-01-15T00:32:44;0.90;;;0.33;;
291;SDS011;23311;48.776;9.162;2023-01-15T00:35:13;1.47;;;0.50;;
291;SDS011;23311;48.776;9.162;2023-01-15T00:37:42;1.70;;;0.60;;
291;SDS011;23311;48.776;9.162;2023-01-15T00:40:11;1.20;;;0.70;;
291;SDS011;23311;48.776;9.162;2023-01-15T00:42:39;1.70;;;0.63;;
291;SDS011;23311;48.776;9.162;2023-01-15T00:45:13;1.10;;;0.57;;
291;SDS011;23311;48.776;9.162;2023-01-15T00:47:43;1.57;;;0.47;;
291;SDS011;23311;48.776;9.162;2023-01-15T00:50:18;1.10;;;0.40;;
291;SDS011;23311;48.776;9.162;2023-01-15T00:52:46;1.00;;;0.40;;
291;SDS011;23311;48.776;9.162;2023-01-15T00:55:15;1.20;;;0.40;;
291;SDS011;23311;48.776;9.162;2023-01-15T00:57:43;3.00;;;0.60;;
291;SDS011;23311;48.776;9.162;2023-01-15T01:00:13;1.30;;;0.60;;
291;SDS011;23311;48.776;9.162;2023-01-15T01:02:41;2.33;;;0.60;;
291;SDS011;23311;48.776;9.162;2023-01-15T01:05:09;1.00;;;0.33;;
291;SDS011;23311;48.776;9.162;2023-01-15T01:07:37;1.10;;;0.50;;
291;SDS011;23311;48.776;9.162;2023-01-15T01:10:05;1.60;;;0.50;;
291;SDS011;23311;48.776;9.162;2023-01-15T01:12:35;1.43;;;0.50;;
291;SDS011;23311;48.776;9.162;2023-01-15T01:15:04;1.90;;;0.50;;
291;SDS011;23311;48.776;9.162;2023-01-15T01:17:35;1.50;;;0.40;;
291;SDS011;23311;48.776;9.162;2023-01-15T01:20:03;1.77;;;0.60;;
291;SDS011;23311;48.776;9.162;2023-01-15T01:22:32;1.10;;;0.43;;
291;SDS011;23311;48.776;9.162;2023-01-15T01:25:00;2.60;;;0.90;;
291;SDS011;23311;48.776;9.162;2023-01-15T01:27:28;1.63;;;0.60;;
291;SDS011;23311;48.776;9.162;2023-01-15T01:29:56;1.20;;;0.47;;
291;SDS011;23311;48.776;9.162;2023-01-15T01:32:24;1.23;;;0.50;;
291;SDS011;23311;48.776;9.162;2023-01-15T01:34:54;1.10;;;0.40;;
291;SDS011;23311;48.776;9.162;2023-01-15T01:37:22;1.33;;;0.40;;
291;SDS011;23311;48.776;9.162;2023-01-15T01:39:50;1.10;;;0.43;;
291;SDS011;23311;48.776;9.162;2023-01-15T01:42:18;1.70;;;0.70;;
291;SDS011;23311;48.776;9.162;2023-01-15T01:44:59;1.00;;;0.40;;
291;SDS011;23311;48.776;9.162;2023-01-15T01:47:33;2.50;;;0.77;;
291;SDS011;23311;48.776;9.162;2023-01-15T01:50:04;1.40;;;0.60;;
291;SDS011;23311;48.776;9.162;2023-01-15T01:52:36;1.53;;;0.50;;
291;SDS011;23311;48.776;9.162;2023-01-15T01:55:08;1.90;;;0.40;;
291;SDS011;23311;48.776;9.162;2023-01-15T01:57:38;1.30;;;0.40;;
291;SDS011;23311;48.776;9.162;2023-01-15T02:00:07;1.07;;;0.50;;
291;SDS011;23311;48.776;9.162;2023-01-15T02:02:37;1.20;;;0.40;;
291;SDS011;23311;48.776;9.162;2023-01-15T02:05:08;1.00;;;0.40;;
291;SDS011;23311;48.776;9.162;2023-01-15T02:07:40;1.00;;;0.40;;
291;SDS011;23311;48.776;9.162;2023-01-15T02:10:12;1.33;;;0.67;;
291;SDS011;23311;48.776;9.162;2023-01-15T02:12:41;1.00;;;0.40;;
291;SDS011;23311;48.776;9.162;2023-01-15T02:15:16;1.50;;;0.50;;
291;SDS011;23311;48.776;9.162;2023-01-15T02:17:48;1.50;;;0.40;;
291;SDS011;23311;48.776;9.162;2023-01-15T02:20:25;1.63;;;0.50;;
291;SDS011;23311;48.776;9.162;2023-01-15T02:23:06;0.90;;;0.40;;
291;SDS011;23311;48.776;9.162;2023-01-15T02:25:46;1.17;;;0.47;;
291;SDS011;23311;48.776;9.162;2023-01-15T02:28:30;0.93;;;0.30;;
291;SDS011;23311;48.776;9.162;2023-01-15T02:31:01;0.93;;;0.30;;
291;SDS011;23311;48.776;9.162;2023-01-15T02:33:38;0.90;;;0.30;;
291;SDS011;23311;48.776;9.162;2023-01-15T02:36:09;1.13;;;0.30;;
291;SDS011;23311;48.776;9.162;2023-01-15T02:38:42;0.90;;;0.40;;
291;SDS011;23311;48.776;9.162;2023-01-15T02:41:12;1.00;;;0.30;;
291;SDS011;23311;48.776;9.162;2023-01-15T02:43:45;1.30;;;0.40;;
291;SDS011;23311;48.776;9.162;2023-01-15T02:46:17;1.30;;;0.40;;
291;SDS011;23311;48.776;9.162;2023-01-15T02:48:49;1.33;;;0.50;;
291;SDS011;23311;48.776;9.162;2023-01-15T02:51:20;0.90;;;0.30;;
291;SDS011;23311;48.776;9.162;2023-01-15T02:53:52;0.90;;;0.40;;
291;SDS011;23311;48.776;9.162;2023-01-15T02:56:26;1.13;;;0.53;;
291;SDS011;23311;48.776;9.162;2023-01-15T02:59:04;1.20;;;0.50;;
291;SDS011;23311;48.776;9.162;2023-01-15T03:01:35;1.83;;;0.40;;
291;SDS011;23311;48.776;9.162;2023-01-15T03:04:12;1.00;;;0.40;;
291;SDS011;23311;48.776;9.162;2023-01-15T03:06:44;1.10;;;0.30;;
291;SDS011;23311;48.776;9.162;2023-01-15T03:09:16;1.00;;;0.30;;
291;SDS011;23311;48.776;9.162;2023-01-15T03:11:46;0.90;;;0.37;;
291;SDS011;23311;48.776;9.162;2023-01-15T03:14:22;1.30;;;0.40;;
291;SDS011;23311;48.776;9.162;2023-01-15T03:16:57;0.90;;;0.37;;
291;SDS011;23311;48.776;9.162;2023-01-15T03:19:30;1.03;;;0.40;;
291;SDS011;23311;48.776;9.162;2023-01-15T03:22:04;1.37;;;0.30;;
291;SDS011;23311;48.776;9.162;2023-01-15T03:24:36;1.00;;;0.30;;
291;SDS011;23311;48.776;9.162;2023-01-15T03:27:08;0.80;;;0.30;;
291;SDS011;23311;48.776;9.162;2023-01-15T03:29:39;0.90;;;0.30;;
291;SDS011;23311;48.776;9.162;2023-01-15T03:32:09;0.90;;;0.30;;
291;SDS011;23311;48.776;9.162;2023-01-15T03:34:39;0.80;;;0.30;;
291;SDS011;23311;48.776;9.162;2023-01-15T03:37:10;1.33;;;0.43;;
291;SDS011;23311;48.776;9.162;2023-01-15T03:39:39;1.10;;;0.30;;
291;SDS011;23311;48.776;9.162;2023-01-15T03:42:14;0.80;;;0.30;;
291;SDS011;23311;48.776;9.162;2023-01-15T03:44:53;0.80;;;0.30;;
291;SDS011;23311;48.776;9.162;2023-01-15T03:47:29;1.10;;;0.50;;
291;SDS011;23311;48.776;9.162;2023-01-15T03:50:08;1.63;;;0.40;;
291;SDS011;23311;48.776;9.162;2023-01-15T03:52:45;0.90;;;0.30;;
291;SDS011;23311;48.776;9.162;2023-01-15T03:55:17;0.90;;;0.30;;
291;SDS011;23311;48.776;9.162;2023-01-15T03:57:49;0.80;;;0.30;;
291;SDS011;23311;48.776;9.162;2023-01-15T04:00:25;0.80;;;0.30;;
291;SDS011;23311;48.776;9.162;2023-01-15T04:02:55;0.90;;;0.30;;
291;SDS011;23311;48.776;9.162;2023-01-15T04:05:24;1.10;;;0.30;;
291;SDS011;23311;48.776;9.162;2023-01-15T04:07:54;1.37;;;0.30;;
291;SDS011;23311;48.776;9.162;2023-01-15T04:10:24;0.90;;;0.30;;
291;SDS011;23311;48.776;9.162;2023-01-15T04:12:52;0.80;;;0.30;;
291;SDS011;23311;48.776;9.162;2023-01-15T04:15:20;0.90;;;0.30;;
291;SDS011;23311;48.776;9.162;2023-01-15T04:17:50;0.90;;;0.30;;
291;SDS011;23311;48.776;9.162;2023-01-15T04:20:18;1.00;;;0.37;;
291;SDS011;23311;48.776;9.162;2023-01-15T04:22:46;0.80;;;0.30;;
291;SDS011;23311;48.776;9.162;2023-01-15T04:25:14;0.80;;;0.30;;
291;SDS011;23311;48.776;9.162;2023-01-15T04:27:42;0.80;;;0.30;;
291;SDS011;23311;48.776;9.162;2023-01-15T04:30:10;0.80;;;0.30;;
291;SDS011;23311;48.776;9.162;2023-01-15T04:32:38;0.80;;;0.30;;
291;SDS011;23311;48.776;9.162;2023-01-15T04:35:08;0.83;;;0.27;;
291;SDS011;23311;48.776;9.162;2023-01-15T04:37:36;1.00;;;0.30;;
291;SDS011;23311;48.776;9.162;2023-01-15T04:40:05;1.57;;;0.30;;
291;SDS011;23311;48.776;9.162;2023-01-15T04:42:34;0.97;;;0.30;;
291;SDS011;23311;48.776;9.162;2023-01-15T04:45:19;1.00;;;0.30;;
291;SDS011;23311;48.776;9.162;2023-01-15T04:47:47;0.83;;;0.30;;
291;SDS011;23311;48.776;9.162;2023-01-15T04:50:17;0.97;;;0.30;;
291;SDS011;23311;48.776;9.162;2023-01-15T04:52:45;0.90;;;0.30;;
291;SDS011;23311;48.776;9.162;2023-01-15T04:55:13;0.90;;;0.30;;
291;SDS011;23311;48.776;9.162;2023-01-15T04:57:41;0.80;;;0.30;;
291;SDS011;23311;48.776;9.162;2023-01-15T05:00:09;0.80;;;0.20;;
291;SDS011;23311;48.776;9.162;2023-01-15T05:02:38;1.03;;;0.30;;
291;SDS011;23311;48.776;9.162;2023-01-15T05:05:06;0.80;;;0.30;;
291;SDS011;23311;48.776;9.162;2023-01-15T05:07:36;1.20;;;0.50;;
291;SDS011;23311;48.776;9.162;2023-01-15T05:10:05;1.30;;;0.40;;
291;SDS011;23311;48.776;9.162;2023-01-15T05:12:33;0.90;;;0.30;;
291;SDS011;23311;48.776;9.162;2023-01-15T05:15:01;1.00;;;0.30;;
291;SDS011;23311;48.776;9.162;2023-01-15T05:17:30;0.97;;;0.30;;
291;SDS011;23311;48.776;9.162;2023-01-15T05:19:58;0.90;;;0.37;;
291;SDS011;23311;48.776;9.162;2023-01-15T05:22:26;0.90;;;0.30;;
291;SDS011;23311;48.776;9.162;2023-01-15T05:24:56;1.37;;;0.40;;
291;SDS011;23311;48.776;9.162;2023-01-15T05:27:24;0.80;;;0.30;;
291;SDS011;23311;48.776;9.162;2023-01-15T05:29:52;0.90;;;0.30;;
291;SDS011;23311;48.776;9.162;2023-01-15T05:32:20;2.80;;;0.50;;
291;SDS011;23311;48.776;9.162;2023-01-15T05:34:48;1.00;;;0.33;;
291;SDS011;23311;48.776;9.162;2023-01-15T05:37:16;1.17;;;0.30;;
291;SDS011;23311;48.776;9.162;2023-01-15T05:39:44;0.80;;;0.30;;
291;SDS011;23311;48.776;9.162;2023-01-15T05:42:13;1.20;;;0.23;;
291;SDS011;23311;48.776;9.162;2023-01-15T05:44:41;0.90;;;0.30;;
291;SDS011;23311;48.776;9.162;2023-01-15T05:47:09;1.00;;;0.30;;
291;SDS011;23311;48.776;9.162;2023-01-15T05:49:37;0.80;;;0.30;;
291;SDS011;23311;48.776;9.162;2023-01-15T05:52:06;0.90;;;0.30;;
291;SDS011;23311;48.776;9.162;2023-01-15T05:54:35;0.80;;;0.30;;
291;SDS011;23311;48.776;9.162;2023-01-15T05:57:03;1.30;;;0.50;;
291;SDS011;23311;48.776;9.162;2023-01-15T05:59:32;0.90;;;0.30;;
291;SDS011;23311;48.776;9.162;2023-01-15T06:02:00;0.80;;;0.30;;
291;SDS011;23311;48.776;9.162;2023-01-15T06:04:28;0.90;;;0.30;;
291;SDS011;23311;48.776;9.162;2023-01-15T06:06:57;0.80;;;0.27;;
291;SDS011;23311;48.776;9.162;2023-01-15T06:09:25;0.87;;;0.20;;
291;SDS011;23311;48.776;9.162;2023-01-15T06:11:55;0.83;;;0.30;;
291;SDS011;23311;48.776;9.162;2023-01-15T06:14:23;2.40;;;0.30;;
291;SDS011;23311;48.776;9.162;2023-01-15T06:16:53;0.80;;;0.30;;
291;SDS011;23311;48.776;9.162;2023-01-15T06:19:21;0.97;;;0.30;;
291;SDS011;23311;48.776;9.162;2023-01-15T06:21:49;0.70;;;0.20;;
291;SDS011;23311;48.776;9.162;2023-01-15T06:24:17;0.70;;;0.30;;
291;SDS011;23311;48.776;9.162;2023-01-15T06:26:46;0.73;;;0.30;;
291;SDS011;23311;48.776;9.162;2023-01-15T06:29:14;0.70;;;0.30;;
291;SDS011;23311;48.776;9.162;2023-01-15T06:31:44;1.30;;;0.30;;
291;SDS011;23311;48.776;9.162;2023-01-15T06:34:14;0.80;;;0.30;;
291;SDS011;23311;48.776;9.162;2023-01-15T06:36:42;0.90;;;0.30;;
291;SDS011;23311;48.776;9.162;2023-01-15T06:39:11;0.80;;;0.30;;
291;SDS011;23311;48.776;9.162;2023-01-15T06:41:39;1.03;;;0.30;;
291;SDS011;23311;48.776;9.162;2023-01-15T06:44:24;0.80;;;0.30;;
291;SDS011;23311;48.776;9.162;2023-01-15T06:47:11;0.80;;;0.30;;
291;SDS011;23311;48.776;9.162;2023-01-15T06:49:49;0.97;;;0.40;;
291;SDS011;23311;48.776;9.162;2023-01-15T06:52:19;0.80;;;0.30;;
291;SDS011;23311;48.776;9.162;2023-01-15T06:54:47;1.70;;;0.50;;
291;SDS011;23311;48.776;9.162;2023-01-15T06:57:15;1.00;;;0.40;;
291;SDS011;23311;48.776;9.162;2023-01-15T06:59:44;1.50;;;0.53;;
291;SDS011;23311;48.776;9.162;2023-01-15T07:02:12;0.80;;;0.30;;
291;SDS011;23311;48.776;9.162;2023-01-15T07:04:40;1.50;;;0.83;;
291;SDS011;23311;48.776;9.162;2023-01-15T07:07:09;1.00;;;0.40;;
291;SDS011;23311;48.776;9.162;2023-01-15T07:09:37;0.70;;;0.20;;
291;SDS011;23311;48.776;9.162;2023-01-15T07:12:05;0.70;;;0.30;;
291;SDS011;23311;48.776;9.162;2023-01-15T07:14:33;0.80;;;0.30;;
291;SDS011;23311;48.776;9.162;2023-01-15T07:17:02;0.70;;;0.30;;
291;SDS011;23311;48.776;9.162;2023-01-15T07:19:30;0.83;;;0.30;;
291;SDS011;23311;48.776;9.162;2023-01-15T07:21:58;0.80;;;0.30;;
291;SDS011;23311;48.776;9.162;2023-01-15T07:24:27;0.80;;;0.30;;
291;SDS011;23311;48.776;9.162;2023-01-15T07:26:55;0.80;;;0.30;;
291;SDS011;23311;48.776;9.162;2023-01-15T07:29:23;0.97;;;0.23;;
291;SDS011;23311;48.776;9.162;2023-01-15T07:31:51;1.07;;;0.40;;
291;SDS011;23311;48.776;9.162;2023-01-15T07:34:19;1.03;;;0.30;;
291;SDS011;23311;48.776;9.162;2023-01-15T07:36:47;0.70;;;0.30;;
291;SDS011;23311;48.776;9.162;2023-01-15T07:39:15;0.70;;;0.30;;
291;SDS011;23311;48.776;9.162;2023-01-15T07:41:45;1.33;;;0.30;;
291;SDS011;23311;48.776;9.162;2023-01-15T07:44:30;0.70;;;0.30;;
291;SDS011;23311;48.776;9.162;2023-01-15T07:47:17;0.80;;;0.30;;
291;SDS011;23311;48.776;9.162;2023-01-15T07:50:05;0.80;;;0.30;;
291;SDS011;23311;48.776;9.162;2023-01-15T07:52:36;0.70;;;0.30;;
291;SDS011;23311;48.776;9.162;2023-01-15T07:55:04;0.70;;;0.30;;
291;SDS011;23311;48.776;9.162;2023-01-15T07:57:35;0.80;;;0.30;;
291;SDS011;23311;48.776;9.162;2023-01-15T08:00:04;0.80;;;0.30;;
291;SDS011;23311;48.776;9.162;2023-01-15T08:02:33;0.80;;;0.30;;
291;SDS011;23311;48.776;9.162;2023-01-15T08:05:01;0.70;;;0.30;;
291;SDS011;23311;48.776;9.162;2023-01-15T08:07:29;0.80;;;0.30;;
291;SDS011;23311;48.776;9.162;2023-01-15T08:09:57;0.80;;;0.30;;
291;SDS011;23311;48.776;9.162;2023-01-15T08:12:25;0.70;;;0.20;;
291;SDS011;23311;48.776;9.162;2023-01-15T08:15:12;0.90;;;0.30;;
291;SDS011;23311;48.776;9.162;2023-01-15T08:17:41;0.70;;;0.30;;
291;SDS011;23311;48.776;9.162;2023-01-15T08:20:11;1.00;;;0.30;;
291;SDS011;23311;48.776;9.162;2023-01-15T08:22:41;0.80;;;0.30;;
291;SDS011;23311;48.776;9.162;2023-01-15T08:25:10;0.90;;;0.40;;
291;SDS011;23311;48.776;9.162;2023-01-15T08:27:39;0.93;;;0.40;;
291;SDS011;23311;48.776;9.162;2023-01-15T08:30:10;0.90;;;0.30;;
291;SDS011;23311;48.776;9.162;2023-01-15T08:32:41;0.80;;;0.30;;
291;SDS011;23311;48.776;9.162;2023-01-15T08:35:09;0.90;;;0.30;;
291;SDS011;23311;48.776;9.162;2023-01-15T08:37:38;1.43;;;0.40;;
291;SDS011;23311;48.776;9.162;2023-01-15T08:40:07;0.90;;;0.30;;
291;SDS011;23311;48.776;9.162;2023-01-15T08:42:35;0.90;;;0.30;;
291;SDS011;23311;48.776;9.162;2023-01-15T08:45:14;1.07;;;0.40;;
291;SDS011;23311;48.776;9.162;2023-01-15T08:47:44;0.80;;;0.40;;
291;SDS011;23311;48.776;9.162;2023-01-15T08:50:12;0.90;;;0.30;;
291;SDS011;23311;48.776;9.162;2023-01-15T08:52:40;1.27;;;0.30;;
291;SDS011;23311;48.776;9.162;2023-01-15T08:55:08;1.00;;;0.40;;
291;SDS011;23311;48.776;9.162;2023-01-15T08:57:36;0.87;;;0.37;;
291;SDS011;23311;48.776;9.162;2023-01-15T09:00:05;1.03;;;0.40;;
291;SDS011;23311;48.776;9.162;2023-01-15T09:02:35;1.97;;;0.30;;
291;SDS011;23311;48.776;9.162;2023-01-15T09:05:04;0.90;;;0.33;;
291;SDS011;23311;48.776;9.162;2023-01-15T09:07:32;1.50;;;0.40;;
291;SDS011;23311;48.776;9.162;2023-01-15T09:10:02;1.00;;;0.40;;
291;SDS011;23311;48.776;9.162;2023-01-15T09:12:31;1.10;;;0.40;;
291;SDS011;23311;48.776;9.162;2023-01-15T09:14:59;1.83;;;0.50;;
291;SDS011;23311;48.776;9.162;2023-01-15T09:17:30;1.70;;;0.60;;
291;SDS011;23311;48.776;9.162;2023-01-15T09:20:00;1.77;;;0.90;;
291;SDS011;23311;48.776;9.162;2023-01-15T09:22:28;1.90;;;0.50;;
291;SDS011;23311;48.776;9.162;2023-01-15T09:24:56;1.23;;;0.70;;
291;SDS011;23311;48.776;9.162;2023-01-15T09:27:25;1.10;;;0.40;;
291;SDS011;23311;48.776;9.162;2023-01-15T09:29:53;1.57;;;0.40;;
291;SDS011;23311;48.776;9.162;2023-01-15T09:32:21;1.40;;;0.50;;
291;SDS011;23311;48.776;9.162;2023-01-15T09:34:49;1.20;;;0.57;;
291;SDS011;23311;48.776;9.162;2023-01-15T09:37:19;1.07;;;0.40;;
291;SDS011;23311;48.776;9.162;2023-01-15T09:39:47;1.37;;;0.60;;
291;SDS011;23311;48.776;9.162;2023-01-15T09:42:22;1.97;;;0.60;;
291;SDS011;23311;48.776;9.162;2023-01-15T09:45:10;0.80;;;0.30;;
291;SDS011;23311;48.776;9.162;2023-01-15T09:47:45;1.00;;;0.40;;
291;SDS011;23311;48.776;9.162;2023-01-15T09:50:27;1.07;;;0.40;;
291;SDS011;23311;48.776;9.162;2023-01-15T09:53:08;0.90;;;0.40;;
291;SDS011;23311;48.776;9.162;2023-01-15T09:55:45;0.80;;;0.30;;
291;SDS011;23311;48.776;9.162;2023-01-15T09:58:15;1.00;;;0.40;;
291;SDS011;23311;48.776;9.162;2023-01-15T10:00:45;1.30;;;0.37;;
291;SDS011;23311;48.776;9.162;2023-01-15T10:03:20;0.90;;;0.40;;
291;SDS011;23311;48.776;9.162;2023-01-15T10:05:57;0.80;;;0.30;;
291;SDS011;23311;48.776;9.162;2023-01-15T10:08:36;1.20;;;0.30;;
291;SDS011;23311;48.776;9.162;2023-01-15T10:11:20;1.10;;;0.30;;
291;SDS011;23311;48.776;9.162;2023-01-15T10:14:17;1.37;;;0.50;;
291;SDS011;23311;48.776;9.162;2023-01-15T10:16:57;0.80;;;0.30;;
291;SDS011;23311;48.776;9.162;2023-01-15T10:19:25;0.80;;;0.30;;
291;SDS011;23311;48.776;9.162;2023-01-15T10:22:10;1.03;;;0.30;;
291;SDS011;23311;48.776;9.162;2023-01-15T10:24:50;0.93;;;0.30;;
291;SDS011;23311;48.776;9.162;2023-01-15T10:27:24;2.03;;;0.40;;
291;SDS011;23311;48.776;9.162;2023-01-15T10:29:57;1.17;;;0.70;;
291;SDS011;23311;48.776;9.162;2023-01-15T10:32:31;0.83;;;0.30;;
291;SDS011;23311;48.776;9.162;2023-01-15T10:35:19;1.00;;;0.50;;
291;SDS011;23311;48.776;9.162;2023-01-15T10:37:55;0.90;;;0.30;;
291;SDS011;23311;48.776;9.162;2023-01-15T10:43:52;0.90;;;0.40;;
291;SDS011;23311;48.776;9.162;2023-01-15T10:46:26;1.10;;;0.40;;
291;SDS011;23311;48.776;9.162;2023-01-15T10:49:00;0.90;;;0.30;;
291;SDS011;23311;48.776;9.162;2023-01-15T10:51:33;1.10;;;0.40;;
291;SDS011;23311;48.776;9.162;2023-01-15T10:54:05;0.90;;;0.37;;
291;SDS011;23311;48.776;9.162;2023-01-15T10:56:43;1.83;;;0.50;;
291;SDS011;23311;48.776;9.162;2023-01-15T10:59:18;1.87;;;0.50;;
291;SDS011;23311;48.776;9.162;2023-01-15T11:02:02;0.90;;;0.43;;
291;SDS011;23311;48.776;9.162;2023-01-15T11:04:49;1.00;;;0.40;;
291;SDS011;23311;48.776;9.162;2023-01-15T11:07:17;0.90;;;0.30;;
291;SDS011;23311;48.776;9.162;2023-01-15T11:09:45;1.47;;;0.30;;
291;SDS011;23311;48.776;9.162;2023-01-15T11:12:19;0.90;;;0.40;;
291;SDS011;23311;48.776;9.162;2023-01-15T11:15:14;0.93;;;0.30;;
291;SDS011;23311;48.776;9.162;2023-01-15T11:18:09;2.00;;;0.57;;
291;SDS011;23311;48.776;9.162;2023-01-15T11:20:58;0.90;;;0.30;;
291;SDS011;23311;48.776;9.162;2023-01-15T11:23:27;0.80;;;0.30;;
291;SDS011;23311;48.776;9.162;2023-01-15T11:26:01;1.57;;;0.50;;
291;SDS011;23311;48.776;9.162;2023-01-15T11:28:32;0.80;;;0.30;;
291;SDS011;23311;48.776;9.162;2023-01-15T11:31:05;0.80;;;0.30;;
291;SDS011;23311;48.776;9.162;2023-01-15T11:33:34;1.53;;;0.30;;
291;SDS011;23311;48.776;9.162;2023-01-15T11:36:04;1.00;;;0.40;;
291;SDS011;23311;48.776;9.162;2023-01-15T11:38:41;0.70;;;0.30;;
291;SDS011;23311;48.776;9.162;2023-01-15T11:41:21;1.30;;;0.33;;
291;SDS011;23311;48.776;9.162;2023-01-15T11:44:12;0.70;;;0.30;;
291;SDS011;23311;48.776;9.162;2023-01-15T11:46:59;0.80;;;0.30;;
291;SDS011;23311;48.776;9.162;2023-01-15T11:49:48;0.80;;;0.30;;
291;SDS011;23311;48.776;9.162;2023-01-15T11:52:35;1.07;;;0.50;;
291;SDS011;23311;48.776;9.162;2023-01-15T11:55:09;0.90;;;0.40;;
291;SDS011;23311;48.776;9.162;2023-01-15T11:57:38;0.80;;;0.30;;
291;SDS011;23311;48.776;9.162;2023-01-15T12:00:15;0.93;;;0.30;;
291;SDS011;23311;48.776;9.162;2023-01-15T12:02:47;1.00;;;0.40;;
291;SDS011;23311;48.776;9.162;2023-01-15T12:05:16;1.13;;;0.30;;
291;SDS011;23311;48.776;9.162;2023-01-15T12:07:46;0.80;;;0.30;;
291;SDS011;23311;48.776;9.162;2023-01-15T12:10:17;1.30;;;0.40;;
291;SDS011;23311;48.776;9.162;2023-01-15T12:13:11;1.43;;;0.50;;
291;SDS011;23311;48.776;9.162;2023-01-15T12:15:51;1.00;;;0.40;;
291;SDS011;23311;48.776;9.162;2023-01-15T12:18:41;0.90;;;0.40;;
291;SDS011;23311;48.776;9.162;2023-01-15T12:24:36;1.23;;;0.50;;
291;SDS011;23311;48.776;9.162;2023-01-15T12:27:34;0.90;;;0.40;;
291;SDS011;23311;48.776;9.162;2023-01-15T12:30:18;1.20;;;0.50;;
291;SDS011;23311;48.776;9.162;2023-01-15T12:32:53;3.30;;;0.40;;
291;SDS011;23311;48.776;9.162;2023-01-15T12:35:28;0.80;;;0.30;;
291;SDS011;23311;48.776;9.162;2023-01-15T12:37:58;2.33;;;0.40;;
291;SDS011;23311;48.776;9.162;2023-01-15T12:40:37;1.00;;;0.40;;
291;SDS011;23311;48.776;9.162;2023-01-15T12:43:12;1.10;;;0.60;;
291;SDS011;23311;48.776;9.162;2023-01-15T12:46:02;1.90;;;0.60;;
291;SDS011;23311;48.776;9.162;2023-01-15T12:48:36;1.00;;;0.40;;
291;SDS011;23311;48.776;9.162;2023-01-15T12:51:12;1.13;;;0.60;;
291;SDS011;23311;48.776;9.162;2023-01-15T12:53:45;1.70;;;0.67;;
291;SDS011;23311;48.776;9.162;2023-01-15T12:56:18;1.30;;;0.43;;
291;SDS011;23311;48.776;9.162;2023-01-15T12:58:53;1.47;;;0.57;;
291;SDS011;23311;48.776;9.162;2023-01-15T13:01:30;2.40;;;0.40;;
291;SDS011;23311;48.776;9.162;2023-01-15T13:04:10;2.07;;;0.50;;
291;SDS011;23311;48.776;9.162;2023-01-15T13:06:43;1.33;;;0.50;;
291;SDS011;23311;48.776;9.162;2023-01-15T13:09:18;3.50;;;0.60;;
291;SDS011;23311;48.776;9.162;2023-01-15T13:11:57;6.73;;;1.10;;
291;SDS011;23311;48.776;9.162;2023-01-15T13:14:25;2.90;;;0.80;;
291;SDS011;23311;48.776;9.162;2023-01-15T13:16:54;2.67;;;1.63;;
291;SDS011;23311;48.776;9.162;2023-01-15T13:19:36;3.40;;;1.40;;
291;SDS011;23311;48.776;9.162;2023-01-15T13:22:11;2.67;;;0.90;;
291;SDS011;23311;48.776;9.162;2023-01-15T13:24:47;3.27;;;1.20;;
291;SDS011;23311;48.776;9.162;2023-01-15T13:27:48;3.70;;;1.30;;
291;SDS011;23311;48.776;9.162;2023-01-15T13:30:32;5.23;;;0.80;;
291;SDS011;23311;48.776;9.162;2023-01-15T13:33:15;1.80;;;1.13;;
291;SDS011;23311;48.776;9.162;2023-01-15T13:35:52;2.70;;;0.90;;
291;SDS011;23311;48.776;9.162;2023-01-15T13:38:24;2.03;;;1.00;;
291;SDS011;23311;48.776;9.162;2023-01-15T13:40:54;5.20;;;1.33;;
291;SDS011;23311;48.776;9.162;2023-01-15T13:43:29;2.97;;;1.50;;
291;SDS011;23311;48.776;9.162;2023-01-15T13:46:01;3.33;;;1.60;;
291;SDS011;23311;48.776;9.162;2023-01-15T13:48:32;2.73;;;1.20;;
291;SDS011;23311;48.776;9.162;2023-01-15T13:51:05;2.43;;;1.37;;
291;SDS011;23311;48.776;9.162;2023-01-15T13:53:46;5.03;;;1.90;;
291;SDS011;23311;48.776;9.162;2023-01-15T13:56:24;4.10;;;1.80;;
291;SDS011;23311;48.776;9.162;2023-01-15T13:58:54;1.17;;;0.67;;
291;SDS011;23311;48.776;9.162;2023-01-15T14:01:24;2.20;;;0.70;;
291;SDS011;23311;48.776;9.162;2023-01-15T14:04:00;1.77;;;0.60;;
291;SDS011;23311;48.776;9.162;2023-01-15T14:06:42;1.80;;;0.70;;
291;SDS011;23311;48.776;9.162;2023-01-15T14:09:12;1.10;;;0.50;;
291;SDS011;23311;48.776;9.162;2023-01-15T14:11:54;1.57;;;0.87;;
291;SDS011;23311;48.776;9.162;2023-01-15T14:14:35;2.20;;;0.80;;
291;SDS011;23311;48.776;9.162;2023-01-15T14:17:28;5.63;;;1.47;;
291;SDS011;23311;48.776;9.162;2023-01-15T14:20:27;5.60;;;1.27;;
291;SDS011;23311;48.776;9.162;2023-01-15T14:23:10;4.30;;;1.60;;
291;SDS011;23311;48.776;9.162;2023-01-15T14:25:52;4.97;;;1.23;;
291;SDS011;23311;48.776;9.162;2023-01-15T14:28:33;2.43;;;1.13;;
291;SDS011;23311;48.776;9.162;2023-01-15T14:31:13;2.60;;;0.60;;
291;SDS011;23311;48.776;9.162;2023-01-15T14:34:02;1.97;;;1.17;;
291;SDS011;23311;48.776;9.162;2023-01-15T14:36:40;2.13;;;0.60;;
291;SDS011;23311;48.776;9.162;2023-01-15T14:42:15;2.20;;;0.60;;
291;SDS011;23311;48.776;9.162;2023-01-15T14:45:15;1.27;;;0.63;;
291;SDS011;23311;48.776;9.162;2023-01-15T14:47:48;2.03;;;0.53;;
291;SDS011;23311;48.776;9.162;2023-01-15T14:50:22;2.00;;;0.90;;
291;SDS011;23311;48.776;9.162;2023-01-15T14:53:00;1.63;;;0.80;;
291;SDS011;23311;48.776;9.162;2023-01-15T14:55:45;1.50;;;0.90;;
291;SDS011;23311;48.776;9.162;2023-01-15T14:58:17;4.80;;;1.03;;
291;SDS011;23311;48.776;9.162;2023-01-15T15:01:13;1.33;;;0.50;;
291;SDS011;23311;48.776;9.162;2023-01-15T15:03:47;1.30;;;0.53;;
291;SDS011;23311;48.776;9.162;2023-01-15T15:06:19;1.37;;;0.80;;
291;SDS011;23311;48.776;9.162;2023-01-15T15:08:48;1.03;;;0.50;;
291;SDS011;23311;48.776;9.162;2023-01-15T15:11:20;1.83;;;0.60;;
291;SDS011;23311;48.776;9.162;2023-01-15T15:14:10;2.13;;;0.57;;
291;SDS011;23311;48.776;9.162;2023-01-15T15:16:42;1.70;;;0.90;;
291;SDS011;23311;48.776;9.162;2023-01-15T15:19:15;3.33;;;0.50;;
291;SDS011;23311;48.776;9.162;2023-01-15T15:21:48;4.30;;;1.60;;
291;SDS011;23311;48.776;9.162;2023-01-15T15:24:18;2.30;;;0.60;;
291;SDS011;23311;48.776;9.162;2023-01-15T15:26:50;1.50;;;1.10;;
291;SDS011;23311;48.776;9.162;2023-01-15T15:29:19;1.00;;;0.53;;
291;SDS011;23311;48.776;9.162;2023-01-15T15:31:48;3.20;;;1.17;;
291;SDS011;23311;48.776;9.162;2023-01-15T15:34:24;4.23;;;0.70;;
291;SDS011;23311;48.776;9.162;2023-01-15T15:36:54;1.20;;;0.40;;
291;SDS011;23311;48.776;9.162;2023-01-15T15:39:27;1.30;;;0.50;;
291;SDS011;23311;48.776;9.162;2023-01-15T15:42:03;2.27;;;0.63;;
291;SDS011;23311;48.776;9.162;2023-01-15T15:44:58;1.13;;;0.43;;
291;SDS011;23311;48.776;9.162;2023-01-15T15:47:44;1.20;;;0.60;;
291;SDS011;23311;48.776;9.162;2023-01-15T15:50:30;3.13;;;0.80;;
291;SDS011;23311;48.776;9.162;2023-01-15T15:52:59;2.03;;;0.80;;
291;SDS011;23311;48.776;9.162;2023-01-15T15:55:34;1.90;;;0.77;;
291;SDS011;23311;48.776;9.162;2023-01-15T15:58:07;1.30;;;0.50;;
291;SDS011;23311;48.776;9.162;2023-01-15T16:00:41;1.17;;;0.57;;